Burden Lake, New York
Current Conditions -  °F | °C
As of 1:51 AM on Monday 24 Nov 2014 (Local Time) from KALB Reporting Station
Overcast Overcast  
Wind Chill: 51°   Ceiling: 7000
Heat Index: 51°   Visibility: 10mi
Dew Point: 35°   Wind: 12mph
Humidity: 54%   Direction: 160°SSE
Pressure: 29.9"   Gusts: NA
Location:  42.6497°N, 73.5273°W
Report Text: KALB 240651Z 16010KT 10SM BKN070 OVC160 11/02 A2990 RMK AO2 SLP126 T01060017
Loading
Personal Weather Stations






























Interactive Weather Map New forecast layout! Learn more

10-Day Weather Forecast

Advertisements
Track Severe Weather on mobile